메인 페이지
METAR-TAF:

METAR-TAF

공항 :

월리스, 프랑스

위도: 13-14S, 경도: 176-10W, 고도: 23m

METAR: 누락

시각: 05:29 (17:29 UTC)

예보

예보는 6 시간 29분 전, 11:00시(UTC)에 발표되었습니다.
예보 대상 시간: 17일 12시부터 18일 12시까지 (UTC)
8kt
시정 10km 이상
고도 2000ft 상공 구름 보통
일시적
17일 12시부터 17일 21시까지 (UTC)
시정: 4000m
고도 1400ft 상공 구름 많음
고도 2000ft 상공 구름 보통, 타워링 적운.
소나기
확률 40% :
일시적
17일 12시부터 17일 18시까지 (UTC)
시정: 2000m
고도 2000ft 상공 구름 조금, 적란운.
강한소나기
확률 30% :
일시적
18일 04시부터 18일 12시까지 (UTC)
시정: 4500m
고도 2000ft 상공 구름 조금, 타워링 적운.
소나기

TAF: NLWW 171100Z 1712/1812 09008KT 9999 SCT020 TEMPO 1712/1721 4000 SHRA BKN014 SCT020TCU PROB40 TEMPO 1712/1718 2000 +SHRA FEW020CB PROB30 TEMPO 1804/1812 4500 SHRA FEW020TCU

4,000개 이상의 공항 관측 자료 및 예보 (METAR 및 TAF 보고).

지도상에서 검색 가능한 기상관측소가 노란 점과 빨간 점으로 표시되어 있습니다.

기상관측소 명을 보려면 표시 위로 마우스를 이동하세요.

날씨 관측과 예보를 보려면 클릭하세요.

지도 변경 : 확대하려면 엑스 표시가 있는 녹색 버튼, 축소하려면 빼기 표시가 있는 녹색 버튼, 다음 페이지의 지도를 보려면 녹색 화살표를 클릭하세요.


METAR-TAF: